WetterOnline ( https://www.wetteronline.de )

Wetter aktuell Bad Driburg

Aktuelles Wetter: Bad Lippspringe (158m)

6-stündlich | Neueste Meldungen
Ortszeit Temperatur Wetter
Di, 27.02. 1:00 5.8° C bedeckt
Mo, 26.02. 19:00 7.1° C bedeckt
Mo, 26.02. 13:00 8.6° C bedeckt
Mo, 26.02. 7:00 6.4° C leicht bewölkt
Mo, 26.02. 1:00 4.7° C wolkig
So, 25.02. 19:00 4.9° C wolkig
So, 25.02. 13:00 7.7° C bedeckt
So, 25.02. 7:00 4.5° C bedeckt
Ortszeit Temperatur Wetter
Di, 27.02. 5:30 2.5° C wolkenlos
Di, 27.02. 5:20 2.5° C wolkenlos
Di, 27.02. 5:10 2.5° C wolkenlos
Di, 27.02. 5:00 2.4° C fast wolkenlos
Di, 27.02. 4:50 2.4° C fast wolkenlos
Di, 27.02. 4:40 2.7° C leicht bewölkt
Di, 27.02. 4:30 3.3° C bewölkt
Di, 27.02. 4:00 3.6° C bedeckt
Di, 27.02. 3:30 4.4° C bedeckt
Di, 27.02. 3:00 4.8° C bewölkt
Di, 27.02. 2:30 5.2° C bedeckt
Ortszeit Relative Feuchte Sichtweite
Di, 27.02. 1:00 77% 60 km
Mo, 26.02. 19:00 73% 55 km
Mo, 26.02. 13:00 67% 50 km
Mo, 26.02. 7:00 65% >70 km
Mo, 26.02. 1:00 74% >70 km
So, 25.02. 19:00 79% >70 km
So, 25.02. 13:00 66% >70 km
So, 25.02. 7:00 78% >70 km
Ortszeit Relative Feuchte Sichtweite
Di, 27.02. 5:30 92% 15 km
Di, 27.02. 5:20 92% -
Di, 27.02. 5:10 92% -
Di, 27.02. 5:00 92% 15 km
Di, 27.02. 4:50 92% -
Di, 27.02. 4:40 92% -
Di, 27.02. 4:30 91% 19 km
Di, 27.02. 4:00 88% 21 km
Di, 27.02. 3:30 84% 25 km
Di, 27.02. 3:00 83% 30 km
Di, 27.02. 2:30 82% 40 km
Ortszeit Niederschlagsmenge Niederschlagsart
Di, 27.02. 1:00 0.0 l/m2 in 6 Std. -
Mo, 26.02. 19:00 0.1 l/m2 in 12 Std. Regen
Mo, 26.02. 13:00 0.0 l/m2 in 6 Std. -
Mo, 26.02. 7:00 0.0 l/m2 in 12 Std. -
Mo, 26.02. 1:00 0.0 l/m2 in 6 Std. -
So, 25.02. 19:00 0.1 l/m2 in 12 Std. -
So, 25.02. 13:00 0.1 l/m2 in 6 Std. Regen
So, 25.02. 7:00 0.0 l/m2 in 12 Std. -
Ortszeit Niederschlagsmenge Niederschlagsart
Di, 27.02. 5:30 0.0 l/m2 in 30 Min -
Di, 27.02. 5:20 keine Meldung -
Di, 27.02. 5:10 keine Meldung -
Di, 27.02. 5:00 0.0 l/m2 in 1 Std. -
Di, 27.02. 4:50 keine Meldung -
Di, 27.02. 4:40 keine Meldung -
Di, 27.02. 4:30 0.0 l/m2 in 30 Min -
Di, 27.02. 4:00 0.0 l/m2 in 1 Std. -
Di, 27.02. 3:30 0.0 l/m2 in 30 Min -
Di, 27.02. 3:00 0.0 l/m2 in 1 Std. -
Di, 27.02. 2:30 0.0 l/m2 in 30 Min -
Ortszeit Stärke Spitze Richtung
km/h Bft. km/h Grad Sektor
Di, 27.02. 1:00 17 3 33 50° NO
Mo, 26.02. 19:00 18 3 40 70° O
Mo, 26.02. 13:00 20 4 37 80° O
Mo, 26.02. 7:00 22 4 43 100° O
Mo, 26.02. 1:00 15 3 28 100° O
So, 25.02. 19:00 9 2 28 130° SO
So, 25.02. 13:00 14 3 36 230° SW
So, 25.02. 7:00 7 2 32 220° SW
Ortszeit Stärke Spitze Richtung
km/h Bft. km/h Grad Sektor
Di, 27.02. 5:30 11 2 14 50° NO
Di, 27.02. 5:20 11 2 - 50° NO
Di, 27.02. 5:10 11 2 - 40° NO
Di, 27.02. 5:00 7 2 13 50° NO
Di, 27.02. 4:50 7 2 - 50° NO
Di, 27.02. 4:40 7 2 - 70° O
Di, 27.02. 4:30 9 2 13 50° NO
Di, 27.02. 4:00 7 2 18 50° NO
Di, 27.02. 3:30 11 2 18 70° O
Di, 27.02. 3:00 11 2 24 50° NO
Di, 27.02. 2:30 13 3 24 50° NO
Ortszeit Untergrenze Bedeckung Gattung
total tief tief mittel hoch
Di, 27.02. 1:00 2400 m 8/8 8/8 - - -
Mo, 26.02. 19:00 2400 m 8/8 8/8 - - -
Mo, 26.02. 13:00 2400 m 8/8 8/8 - - -
Mo, 26.02. 7:00 1440 m 4/8 4/8 - - -
Mo, 26.02. 1:00 1800 m 8/8 1/8 - - -
So, 25.02. 19:00 9000 m 7/8 0/8 - - -
So, 25.02. 13:00 900 m 8/8 8/8 - - -
So, 25.02. 7:00 1500 m 8/8 8/8 - - -
Ortszeit Bedeckungsgrad in Achtel und Wolkenuntergrenze
Di, 27.02. 5:30 keine Wolken
Di, 27.02. 5:20 keine Wolken
Di, 27.02. 5:10 keine Wolken
Di, 27.02. 5:00 1(8400m)
Di, 27.02. 4:50 1(8400m)
Di, 27.02. 4:40 3
Di, 27.02. 4:30 6(2700m) 8(8700m)
Di, 27.02. 4:00 8(3000m) 8(9000m)
Di, 27.02. 3:30 8(3000m)
Di, 27.02. 3:00 7(3000m) 7(5100m)
Di, 27.02. 2:30 8(2700m)
Ortszeit Luftdruck NN (hPa) Tendenz (hPa in 3 Std.)
Di, 27.02. 1:00 1014 + 2,0
Mo, 26.02. 19:00 1009 + 2,7
Mo, 26.02. 13:00 1004 + 0,9
Mo, 26.02. 7:00 1001 + 0,5
Mo, 26.02. 1:00 1002 - 0,5
So, 25.02. 19:00 1003 + 0,1
So, 25.02. 13:00 1003 - 0,3
So, 25.02. 7:00 1003 - 0,3
Ortszeit Luftdruck NN (hPa) Tendenz (hPa in 3 Std.)
Di, 27.02. 5:30 1016 + 1,4
Di, 27.02. 5:20 1016 keine Meldung
Di, 27.02. 5:10 1015 keine Meldung
Di, 27.02. 5:00 1015 + 1,0
Di, 27.02. 4:50 1015 keine Meldung
Di, 27.02. 4:40 1015 keine Meldung
Di, 27.02. 4:30 1015 + 1,1
Di, 27.02. 4:00 1015 + 1,3
Di, 27.02. 3:30 1015 + 1,2
Di, 27.02. 3:00 1014 + 1,0
Di, 27.02. 2:30 1014 + 1,0
Ortszeit Schneehöhe (cm)
Di, 27.02. 1:00 0
Mo, 26.02. 19:00 0
Mo, 26.02. 13:00 0
Mo, 26.02. 7:00 0
Mo, 26.02. 1:00 0
So, 25.02. 19:00 0
So, 25.02. 13:00 0
So, 25.02. 7:00 0
Ortszeit Schneehöhe (cm)
Di, 27.02. 5:30 0
Di, 27.02. 5:20 0
Di, 27.02. 5:10 -
Di, 27.02. 5:00 0
Di, 27.02. 4:50 0
Di, 27.02. 4:40 -
Di, 27.02. 4:30 0
Di, 27.02. 4:00 0
Di, 27.02. 3:30 0
Di, 27.02. 3:00 0
Di, 27.02. 2:30 0
Link zu dieser Seite / Seite empfehlen

Das Wetter in ...